createdAt,value
2018-11-02T00:00:40.677Z,99.90
2018-11-02T00:03:10.612Z,99.90
2018-11-02T00:05:39.708Z,99.90
2018-11-02T00:08:09.921Z,99.90
2018-11-02T00:10:39.340Z,99.90
2018-11-02T00:13:08.412Z,99.90
2018-11-02T00:15:37.817Z,99.90
2018-11-02T00:18:06.953Z,99.90
2018-11-02T00:20:36.101Z,99.90
2018-11-02T00:23:05.832Z,99.90
2018-11-02T00:25:34.921Z,99.90
2018-11-02T00:28:04.097Z,99.90
2018-11-02T00:30:33.709Z,99.90
2018-11-02T00:33:04.169Z,99.90
2018-11-02T00:35:33.321Z,99.90
2018-11-02T00:38:02.517Z,99.90
2018-11-02T00:40:31.676Z,99.90
2018-11-02T00:43:00.857Z,99.90
2018-11-02T00:45:29.977Z,99.90
2018-11-02T00:47:59.129Z,99.90
2018-11-02T00:50:28.444Z,99.90
2018-11-02T00:52:57.548Z,99.90
2018-11-02T00:55:26.701Z,99.90
2018-11-02T00:57:55.805Z,99.90
2018-11-02T01:00:24.984Z,99.90
2018-11-02T01:02:54.149Z,99.90
2018-11-02T01:05:23.296Z,99.90
2018-11-02T01:07:52.472Z,99.90
2018-11-02T01:10:21.912Z,99.90
2018-11-02T01:12:51.049Z,99.90
2018-11-02T01:15:20.248Z,99.90
2018-11-02T01:17:49.424Z,99.90
2018-11-02T01:20:18.713Z,99.90
2018-11-02T01:22:47.825Z,99.90
2018-11-02T01:25:17.117Z,99.90
2018-11-02T01:27:46.265Z,99.90
2018-11-02T01:30:15.413Z,99.90
2018-11-02T01:32:44.608Z,99.90
2018-11-02T01:35:13.753Z,99.90
2018-11-02T01:37:42.902Z,99.90
2018-11-02T01:40:12.077Z,99.90
2018-11-02T01:42:41.277Z,99.90
2018-11-02T01:45:10.433Z,99.90
2018-11-02T01:47:39.841Z,99.90
2018-11-02T01:50:08.996Z,99.90
2018-11-02T01:52:38.200Z,99.90
2018-11-02T01:55:07.913Z,99.90
2018-11-02T01:57:37.345Z,99.90
2018-11-02T02:00:08.291Z,99.90
2018-11-02T02:02:37.462Z,99.90
2018-11-02T02:05:07.468Z,99.90
2018-11-02T02:07:36.632Z,99.90
2018-11-02T02:10:06.532Z,99.90
2018-11-02T02:12:36.096Z,99.90
2018-11-02T02:15:07.277Z,99.90
2018-11-02T02:17:36.981Z,99.90
2018-11-02T02:20:07.430Z,99.90
2018-11-02T02:22:36.561Z,99.90
2018-11-02T02:25:06.731Z,99.90
2018-11-02T02:27:37.009Z,99.90
2018-11-02T02:30:09.984Z,99.90
2018-11-02T02:32:39.329Z,99.90
2018-11-02T02:35:09.461Z,99.90
2018-11-02T02:37:40.065Z,99.90
2018-11-02T02:40:11.000Z,99.90
2018-11-02T02:42:41.915Z,99.90
2018-11-02T02:45:12.677Z,99.90
2018-11-02T02:47:41.904Z,99.90
2018-11-02T02:50:14.317Z,99.90
2018-11-02T02:52:44.121Z,99.90
2018-11-02T02:55:13.328Z,99.90
2018-11-02T02:57:42.551Z,99.90
2018-11-02T03:00:13.593Z,99.90
2018-11-02T03:02:43.461Z,99.90
2018-11-02T03:05:13.400Z,99.90
2018-11-02T03:07:42.925Z,99.90
2018-11-02T03:10:12.117Z,99.90
2018-11-02T03:12:42.368Z,99.90
2018-11-02T03:15:11.477Z,99.90
2018-11-02T03:17:41.049Z,99.90
2018-11-02T03:20:10.837Z,99.90
2018-11-02T03:22:40.493Z,99.90
2018-11-02T03:25:11.132Z,99.90
2018-11-02T03:27:40.783Z,99.90
2018-11-02T03:30:11.513Z,99.90
2018-11-02T03:32:40.985Z,99.90
2018-11-02T03:35:10.402Z,99.90
2018-11-02T03:37:39.589Z,99.90
2018-11-02T03:40:10.507Z,99.90
2018-11-02T03:42:40.941Z,99.90
2018-11-02T03:45:10.104Z,99.90
2018-11-02T03:47:39.273Z,99.90
2018-11-02T03:50:10.987Z,99.90
2018-11-02T03:52:41.289Z,99.90
2018-11-02T03:55:10.422Z,99.90
2018-11-02T03:57:40.146Z,99.90
2018-11-02T04:00:10.132Z,99.90
2018-11-02T04:02:39.715Z,99.90
2018-11-02T04:05:09.981Z,99.90
2018-11-02T04:07:39.162Z,99.90
2018-11-02T04:10:10.157Z,99.90
2018-11-02T04:12:39.482Z,99.90
2018-11-02T04:15:08.809Z,99.90
2018-11-02T04:17:38.506Z,99.90
2018-11-02T04:20:09.321Z,99.90
2018-11-02T04:22:38.468Z,99.90
2018-11-02T04:25:08.104Z,99.90
2018-11-02T04:27:37.277Z,99.90
2018-11-02T04:30:07.557Z,99.90
2018-11-02T04:32:36.705Z,99.90
2018-11-02T04:35:06.736Z,99.90
2018-11-02T04:37:35.900Z,99.90
2018-11-02T04:40:06.133Z,99.90
2018-11-02T04:42:35.277Z,99.90
2018-11-02T04:45:05.245Z,99.90
2018-11-02T04:47:34.364Z,99.90
2018-11-02T04:50:03.698Z,99.90
2018-11-02T04:52:32.816Z,99.90
2018-11-02T04:55:01.982Z,99.90
2018-11-02T04:57:31.206Z,99.90
2018-11-02T05:00:00.329Z,99.90
2018-11-02T05:02:29.453Z,99.90
2018-11-02T05:04:58.624Z,99.90
2018-11-02T05:07:27.793Z,99.90
2018-11-02T05:09:56.980Z,99.90
2018-11-02T05:12:26.093Z,99.90
2018-11-02T05:14:55.233Z,99.90
2018-11-02T05:17:24.328Z,99.90
2018-11-02T05:19:54.000Z,99.90
2018-11-02T05:22:23.124Z,99.90
2018-11-02T05:24:52.382Z,99.90
2018-11-02T05:27:21.836Z,99.90
2018-11-02T05:29:51.757Z,99.90
2018-11-02T05:32:20.960Z,99.90
2018-11-02T05:34:50.038Z,99.90
2018-11-02T05:37:19.204Z,99.90
2018-11-02T05:39:49.010Z,99.90
2018-11-02T05:42:18.376Z,99.90
2018-11-02T05:44:47.667Z,99.90
2018-11-02T05:47:16.854Z,99.90
2018-11-02T05:49:46.357Z,99.90
2018-11-02T05:52:15.504Z,99.90
2018-11-02T05:54:44.701Z,99.90
2018-11-02T05:57:13.816Z,99.90
2018-11-02T05:59:42.977Z,99.90
2018-11-02T06:02:12.192Z,99.90
2018-11-02T06:04:41.305Z,99.90
2018-11-02T06:07:10.529Z,99.90
2018-11-02T06:09:39.737Z,99.90
2018-11-02T06:12:08.889Z,99.90
2018-11-02T06:14:38.075Z,99.90
2018-11-02T06:17:07.421Z,99.90
2018-11-02T06:19:36.525Z,99.90
2018-11-02T06:22:05.643Z,99.90
2018-11-02T06:24:34.877Z,99.90
2018-11-02T06:27:04.516Z,99.90
2018-11-02T06:29:33.729Z,99.90
2018-11-02T06:32:03.445Z,99.90
2018-11-02T06:34:33.773Z,99.90
2018-11-02T06:37:02.913Z,99.90
2018-11-02T06:39:32.065Z,99.90
2018-11-02T06:42:01.970Z,99.90
2018-11-02T06:44:31.292Z,99.90
2018-11-02T06:47:00.525Z,99.90
2018-11-02T06:49:30.168Z,99.90
2018-11-02T06:51:59.330Z,99.90
2018-11-02T06:54:28.983Z,99.90
2018-11-02T06:56:58.069Z,99.90
2018-11-02T06:59:27.287Z,99.90
2018-11-02T07:01:56.360Z,99.90
2018-11-02T07:04:25.490Z,99.90
2018-11-02T07:06:54.677Z,99.90
2018-11-02T07:09:23.820Z,99.90
2018-11-02T07:11:52.950Z,99.90
2018-11-02T07:14:22.145Z,99.90
2018-11-02T07:16:51.322Z,99.90
2018-11-02T07:19:20.548Z,99.90
2018-11-02T07:21:49.624Z,99.90
2018-11-02T07:24:18.741Z,99.90
2018-11-02T07:26:48.073Z,99.90
2018-11-02T07:29:17.217Z,99.90
2018-11-02T07:31:46.481Z,99.90
2018-11-02T07:34:16.177Z,99.90
2018-11-02T07:36:45.221Z,99.90
2018-11-02T07:39:14.806Z,99.90
2018-11-02T07:41:43.937Z,99.90
2018-11-02T07:44:13.036Z,99.90
2018-11-02T07:46:42.138Z,99.90
2018-11-02T07:49:11.313Z,99.90
2018-11-02T07:51:40.480Z,99.50
2018-11-02T07:54:09.654Z,98.00
2018-11-02T07:56:39.443Z,96.60
2018-11-02T07:59:08.713Z,94.70
2018-11-02T08:01:38.277Z,92.80
2018-11-02T08:04:07.441Z,91.50
2018-11-02T08:06:36.621Z,91.20
2018-11-02T08:09:09.946Z,86.70
2018-11-02T08:11:39.134Z,84.80
2018-11-02T08:14:08.273Z,79.60
2018-11-02T08:16:37.420Z,84.60
2018-11-02T08:19:06.641Z,78.80
2018-11-02T08:21:35.732Z,77.70
2018-11-02T08:24:05.121Z,78.00
2018-11-02T08:26:34.212Z,83.40
2018-11-02T08:29:03.333Z,85.80
2018-11-02T08:31:32.539Z,81.50
2018-11-02T08:34:01.677Z,81.80
2018-11-02T08:36:30.905Z,78.80
2018-11-02T08:39:00.277Z,77.80
2018-11-02T08:41:29.422Z,77.20
2018-11-02T08:43:58.545Z,82.10
2018-11-02T08:46:28.865Z,79.70
2018-11-02T08:48:58.009Z,76.50
2018-11-02T08:51:27.196Z,72.90
2018-11-02T08:53:56.644Z,70.70
2018-11-02T08:56:25.813Z,73.50
2018-11-02T08:58:55.005Z,75.20
2018-11-02T09:01:24.105Z,75.10
2018-11-02T09:03:53.309Z,73.20
2018-11-02T09:06:23.092Z,71.70
2018-11-02T09:08:52.279Z,68.40
2018-11-02T09:11:21.462Z,68.60
2018-11-02T09:13:50.630Z,70.00
2018-11-02T09:16:20.036Z,67.10
2018-11-02T09:18:49.272Z,67.50
2018-11-02T09:21:18.265Z,67.60
2018-11-02T09:23:47.465Z,70.80
2018-11-02T09:26:16.912Z,75.20
2018-11-02T09:28:46.539Z,74.80
2018-11-02T09:31:15.855Z,69.80
2018-11-02T09:33:44.960Z,68.30
2018-11-02T09:36:14.121Z,67.70
2018-11-02T09:38:43.277Z,64.80
2018-11-02T09:41:12.413Z,64.60
2018-11-02T09:43:41.697Z,64.10
2018-11-02T09:46:10.869Z,68.90
2018-11-02T09:48:40.037Z,62.30
2018-11-02T09:51:09.733Z,60.50
2018-11-02T09:53:38.954Z,57.20
2018-11-02T09:56:08.685Z,56.90
2018-11-02T09:58:37.882Z,57.90
2018-11-02T10:01:07.846Z,56.60
2018-11-02T10:03:37.029Z,59.30
2018-11-02T10:06:06.501Z,57.20
2018-11-02T10:08:35.701Z,54.60
2018-11-02T10:11:04.894Z,53.30
2018-11-02T10:13:34.095Z,55.80
2018-11-02T10:16:04.452Z,54.10
2018-11-02T10:18:33.744Z,59.10
2018-11-02T10:21:02.925Z,61.30
2018-11-02T10:23:32.033Z,63.20
2018-11-02T10:26:01.234Z,67.00
2018-11-02T10:28:30.441Z,75.60
2018-11-02T10:31:00.253Z,71.10
2018-11-02T10:33:29.552Z,68.90
2018-11-02T10:35:58.924Z,68.60
2018-11-02T10:38:28.465Z,70.10
2018-11-02T10:40:58.989Z,72.10
2018-11-02T10:43:30.457Z,71.10
2018-11-02T10:46:01.919Z,70.20
2018-11-02T10:48:31.099Z,68.20
2018-11-02T10:51:00.216Z,68.50
2018-11-02T10:53:29.381Z,70.00
2018-11-02T10:55:58.641Z,68.60
2018-11-02T10:58:27.825Z,82.50
2018-11-02T11:01:02.380Z,82.60
2018-11-02T11:03:31.349Z,86.50
2018-11-02T11:06:00.492Z,93.10
2018-11-02T11:08:29.665Z,98.20
2018-11-02T11:10:58.842Z,99.90
2018-11-02T11:13:28.463Z,99.90
2018-11-02T11:15:57.544Z,99.90
2018-11-02T11:18:26.934Z,99.90
2018-11-02T11:20:56.054Z,99.90
2018-11-02T11:23:25.156Z,99.90
2018-11-02T11:25:54.281Z,99.90
2018-11-02T11:28:23.472Z,99.90
2018-11-02T11:30:52.717Z,99.90
2018-11-02T11:33:21.883Z,99.90
2018-11-02T11:35:51.106Z,99.90
2018-11-02T11:38:20.256Z,99.90
2018-11-02T11:40:49.352Z,99.90
2018-11-02T11:43:18.978Z,99.90
2018-11-02T11:45:48.165Z,99.90
2018-11-02T11:48:17.289Z,99.90
2018-11-02T11:50:46.485Z,99.90
2018-11-02T11:53:15.682Z,99.90
2018-11-02T11:55:44.868Z,99.90
2018-11-02T11:58:14.017Z,99.90
2018-11-02T12:00:44.301Z,99.90
2018-11-02T12:03:13.573Z,99.90
2018-11-02T12:05:43.753Z,99.90
2018-11-02T12:08:12.914Z,99.90
2018-11-02T12:10:42.072Z,99.90
2018-11-02T12:13:11.602Z,99.90
2018-11-02T12:15:40.812Z,99.90
2018-11-02T12:18:10.112Z,99.90
2018-11-02T12:20:39.244Z,99.90
2018-11-02T12:23:08.789Z,99.90
2018-11-02T12:25:37.931Z,99.90
2018-11-02T12:28:07.908Z,99.90
2018-11-02T12:30:37.130Z,99.90
2018-11-02T12:33:06.657Z,99.90
2018-11-02T12:35:36.241Z,99.90
2018-11-02T12:38:05.473Z,99.90
2018-11-02T12:40:34.645Z,99.90
2018-11-02T12:43:03.862Z,99.90
2018-11-02T12:45:34.361Z,99.90
2018-11-02T12:48:03.567Z,99.90
2018-11-02T12:50:32.749Z,99.90
2018-11-02T12:53:01.809Z,99.90
2018-11-02T12:55:31.001Z,99.90
2018-11-02T12:58:00.137Z,99.90
2018-11-02T13:00:29.533Z,99.90
2018-11-02T13:02:58.959Z,99.90
2018-11-02T13:05:28.209Z,99.90
2018-11-02T13:07:57.409Z,99.90
2018-11-02T13:10:26.537Z,99.90
2018-11-02T13:12:55.734Z,99.90
2018-11-02T13:15:25.367Z,99.90
2018-11-02T13:17:54.538Z,99.90
2018-11-02T13:20:23.942Z,99.90
2018-11-02T13:22:53.026Z,99.90
2018-11-02T13:25:23.088Z,99.90
2018-11-02T13:27:52.765Z,99.90
2018-11-02T13:30:21.996Z,99.90
2018-11-02T13:32:51.053Z,99.90
2018-11-02T13:35:21.223Z,99.90
2018-11-02T13:37:51.005Z,99.90
2018-11-02T13:40:20.285Z,99.90
2018-11-02T13:42:49.520Z,99.90
2018-11-02T13:45:19.445Z,99.90
2018-11-02T13:47:48.644Z,99.90
2018-11-02T13:50:18.308Z,99.90
2018-11-02T13:52:47.409Z,99.90
2018-11-02T13:55:16.561Z,99.90
2018-11-02T13:57:45.747Z,99.90
2018-11-02T14:00:16.875Z,99.90
2018-11-02T14:02:46.056Z,99.90
2018-11-02T14:05:16.532Z,99.90
2018-11-02T14:07:45.696Z,99.90
2018-11-02T14:10:14.981Z,99.90
2018-11-02T14:12:44.141Z,99.90
2018-11-02T14:15:14.604Z,99.90
2018-11-02T14:17:44.160Z,99.90
2018-11-02T14:20:14.281Z,99.90
2018-11-02T14:22:43.444Z,99.90
2018-11-02T14:25:14.952Z,99.90
2018-11-02T14:27:44.413Z,99.90
2018-11-02T14:30:16.885Z,99.90
2018-11-02T14:32:46.859Z,99.90
2018-11-02T14:35:15.969Z,99.90
2018-11-02T14:37:45.129Z,99.90
2018-11-02T14:40:14.233Z,99.90
2018-11-02T14:42:43.798Z,99.90
2018-11-02T14:45:15.805Z,99.90
2018-11-02T14:47:46.053Z,99.90
2018-11-02T14:50:15.361Z,99.90
2018-11-02T14:52:44.516Z,99.90
2018-11-02T14:55:13.649Z,99.90
2018-11-02T14:57:43.035Z,99.90
2018-11-02T15:00:12.633Z,99.90
2018-11-02T15:02:42.397Z,99.90
2018-11-02T15:05:13.028Z,99.90
2018-11-02T15:07:43.088Z,99.90
2018-11-02T15:10:12.291Z,99.90
2018-11-02T15:12:41.514Z,99.90
2018-11-02T15:15:10.820Z,99.90
2018-11-02T15:17:40.601Z,99.90
2018-11-02T15:20:12.723Z,99.90
2018-11-02T15:22:42.269Z,99.90
2018-11-02T15:25:11.476Z,99.90
2018-11-02T15:27:40.569Z,99.90
2018-11-02T15:30:12.657Z,99.90
2018-11-02T15:32:42.944Z,99.90
2018-11-02T15:35:12.568Z,99.90
2018-11-02T15:37:42.844Z,99.90
2018-11-02T15:40:13.241Z,99.90
2018-11-02T15:42:42.828Z,99.90
2018-11-02T15:45:14.650Z,99.90
2018-11-02T15:47:44.649Z,99.90
2018-11-02T15:50:14.228Z,99.90
2018-11-02T15:52:43.417Z,99.90
2018-11-02T15:55:12.885Z,99.90
2018-11-02T15:57:41.988Z,99.90
2018-11-02T16:00:19.449Z,99.90
2018-11-02T16:02:50.104Z,99.90
2018-11-02T16:05:19.420Z,99.90
2018-11-02T16:07:48.609Z,99.90
2018-11-02T16:10:18.225Z,99.90
2018-11-02T16:12:47.429Z,99.90
2018-11-02T16:15:16.737Z,99.90
2018-11-02T16:17:45.929Z,99.90
2018-11-02T16:20:16.205Z,99.90
2018-11-02T16:22:46.433Z,99.90
2018-11-02T16:25:15.649Z,99.90
2018-11-02T16:27:44.881Z,99.90
2018-11-02T16:30:14.331Z,99.90
2018-11-02T16:32:43.361Z,99.90
2018-11-02T16:35:12.825Z,99.90
2018-11-02T16:37:42.772Z,99.90
2018-11-02T16:40:14.556Z,99.90
2018-11-02T16:42:44.391Z,99.90
2018-11-02T16:45:14.269Z,99.90
2018-11-02T16:47:44.131Z,99.90
2018-11-02T16:50:14.361Z,99.90
2018-11-02T16:52:44.778Z,99.90
2018-11-02T16:55:13.933Z,99.90
2018-11-02T16:57:43.250Z,99.90
2018-11-02T17:00:15.473Z,99.90
2018-11-02T17:02:46.229Z,99.90
2018-11-02T17:05:15.805Z,99.90
2018-11-02T17:07:45.004Z,99.90
2018-11-02T17:10:15.366Z,99.90
2018-11-02T17:12:45.252Z,99.90
2018-11-02T17:15:15.355Z,99.90
2018-11-02T17:17:44.586Z,99.90
2018-11-02T17:20:14.959Z,99.90
2018-11-02T17:22:45.409Z,99.90
2018-11-02T17:25:14.907Z,99.90
2018-11-02T17:27:44.245Z,99.90
2018-11-02T17:30:15.977Z,99.90
2018-11-02T17:32:45.117Z,99.90
2018-11-02T17:35:14.177Z,99.90
2018-11-02T17:37:43.397Z,99.90
2018-11-02T17:40:13.853Z,99.90
2018-11-02T17:42:43.783Z,99.90
2018-11-02T17:45:13.084Z,99.90
2018-11-02T17:47:43.908Z,99.90
2018-11-02T17:50:14.384Z,99.90
2018-11-02T17:52:44.728Z,99.90
2018-11-02T17:55:13.906Z,99.90
2018-11-02T17:57:43.084Z,99.90
2018-11-02T18:00:13.526Z,99.90
2018-11-02T18:02:42.624Z,99.90
2018-11-02T18:05:12.240Z,99.90
2018-11-02T18:07:41.436Z,99.90
2018-11-02T18:10:12.318Z,99.90
2018-11-02T18:12:41.490Z,99.90
2018-11-02T18:15:11.732Z,99.90
2018-11-02T18:17:40.905Z,99.90
2018-11-02T18:20:12.892Z,99.90
2018-11-02T18:22:42.346Z,99.90
2018-11-02T18:25:11.597Z,99.90
2018-11-02T18:27:41.409Z,99.90
2018-11-02T18:30:12.008Z,99.90
2018-11-02T18:32:41.673Z,99.90
2018-11-02T18:35:11.311Z,99.90
2018-11-02T18:37:41.345Z,99.90
2018-11-02T18:40:12.688Z,99.90
2018-11-02T18:42:42.264Z,99.90
2018-11-02T18:45:13.081Z,99.90
2018-11-02T18:47:46.758Z,99.90
2018-11-02T18:50:17.581Z,99.90
2018-11-02T18:52:47.753Z,99.90
2018-11-02T18:55:17.200Z,99.90
2018-11-02T18:57:46.505Z,99.90
2018-11-02T19:00:15.986Z,99.90
2018-11-02T19:02:45.144Z,99.90
2018-11-02T19:05:16.351Z,99.90
2018-11-02T19:07:45.693Z,99.90
2018-11-02T19:10:14.852Z,99.90
2018-11-02T19:12:44.685Z,99.90
2018-11-02T19:15:19.166Z,99.90
2018-11-02T19:17:48.333Z,99.90
2018-11-02T19:20:17.565Z,99.90
2018-11-02T19:22:46.681Z,99.90
2018-11-02T19:25:16.576Z,99.90
2018-11-02T19:27:46.438Z,99.90
2018-11-02T19:30:16.188Z,99.90
2018-11-02T19:32:45.361Z,99.90
2018-11-02T19:35:15.107Z,99.90
2018-11-02T19:37:44.613Z,99.90
2018-11-02T19:40:15.005Z,99.90
2018-11-02T19:42:44.304Z,99.90
2018-11-02T19:45:13.819Z,99.90
2018-11-02T19:47:48.369Z,99.90
2018-11-02T19:50:19.117Z,99.90
2018-11-02T19:52:48.265Z,99.90
2018-11-02T19:55:17.534Z,99.90
2018-11-02T19:57:46.636Z,99.90
2018-11-02T20:00:16.701Z,99.90
2018-11-02T20:02:46.399Z,99.90
2018-11-02T20:05:17.640Z,99.90
2018-11-02T20:07:47.205Z,99.90
2018-11-02T20:10:17.709Z,99.90
2018-11-02T20:12:47.589Z,99.90
2018-11-02T20:15:17.395Z,99.90
2018-11-02T20:17:46.638Z,99.90
2018-11-02T20:20:16.712Z,99.90
2018-11-02T20:22:45.991Z,99.90
2018-11-02T20:25:16.780Z,99.90
2018-11-02T20:27:45.960Z,99.90
2018-11-02T20:30:16.822Z,99.90
2018-11-02T20:32:46.195Z,99.90
2018-11-02T20:35:15.610Z,99.90
2018-11-02T20:37:44.723Z,99.90
2018-11-02T20:40:16.556Z,99.90
2018-11-02T20:42:45.881Z,99.90
2018-11-02T20:45:15.591Z,99.90
2018-11-02T20:47:53.015Z,99.90
2018-11-02T20:50:22.156Z,99.90
2018-11-02T20:52:51.801Z,99.90
2018-11-02T20:55:21.189Z,99.90
2018-11-02T20:57:50.309Z,99.90
2018-11-02T21:00:22.448Z,99.90
2018-11-02T21:02:51.814Z,99.90
2018-11-02T21:05:21.842Z,99.90
2018-11-02T21:07:51.632Z,99.90
2018-11-02T21:10:21.503Z,99.90
2018-11-02T21:12:50.793Z,99.90
2018-11-02T21:15:22.127Z,99.90
2018-11-02T21:17:51.834Z,99.90
2018-11-02T21:20:22.297Z,99.90
2018-11-02T21:22:51.787Z,99.90
2018-11-02T21:25:20.960Z,99.90
2018-11-02T21:27:50.910Z,99.90
2018-11-02T21:30:23.296Z,99.90
2018-11-02T21:32:53.237Z,99.90
2018-11-02T21:35:23.101Z,99.90
2018-11-02T21:37:52.521Z,99.90
2018-11-02T21:40:22.790Z,99.90
2018-11-02T21:42:51.944Z,99.90
2018-11-02T21:45:22.401Z,99.90
2018-11-02T21:47:52.218Z,99.90
2018-11-02T21:50:21.521Z,99.90
2018-11-02T21:52:50.661Z,99.90
2018-11-02T21:55:19.770Z,99.90
2018-11-02T21:57:49.464Z,99.90
2018-11-02T22:00:20.271Z,99.90
2018-11-02T22:02:49.972Z,99.90
2018-11-02T22:05:19.169Z,99.90
2018-11-02T22:07:49.236Z,99.90
2018-11-02T22:10:18.793Z,99.90
2018-11-02T22:12:48.497Z,99.90
2018-11-02T22:15:18.068Z,99.90
2018-11-02T22:17:47.201Z,99.90
2018-11-02T22:20:17.013Z,99.90
2018-11-02T22:22:46.465Z,99.90
2018-11-02T22:25:16.068Z,99.90
2018-11-02T22:27:45.220Z,99.90
2018-11-02T22:30:15.676Z,99.90
2018-11-02T22:32:44.910Z,99.90
2018-11-02T22:35:14.703Z,99.90
2018-11-02T22:37:44.370Z,99.90
2018-11-02T22:40:14.166Z,99.90
2018-11-02T22:42:43.878Z,99.90
2018-11-02T22:45:14.129Z,99.90
2018-11-02T22:47:47.405Z,99.90
2018-11-02T22:50:16.698Z,99.90
2018-11-02T22:52:45.945Z,99.90
2018-11-02T22:55:15.557Z,99.90
2018-11-02T22:57:44.744Z,99.90
2018-11-02T23:00:16.633Z,99.90
2018-11-02T23:02:46.662Z,99.90
2018-11-02T23:05:16.487Z,99.90
2018-11-02T23:07:45.935Z,99.90
2018-11-02T23:10:15.045Z,99.90
2018-11-02T23:12:44.204Z,99.90
2018-11-02T23:15:13.697Z,99.90
2018-11-02T23:17:43.078Z,99.90
2018-11-02T23:20:13.780Z,99.90
2018-11-02T23:22:43.137Z,99.90
2018-11-02T23:25:12.789Z,99.90
2018-11-02T23:27:43.216Z,99.90
2018-11-02T23:30:12.805Z,99.90
2018-11-02T23:32:42.017Z,99.90
2018-11-02T23:35:11.196Z,99.90
2018-11-02T23:37:40.397Z,99.90
2018-11-02T23:40:11.013Z,99.90
2018-11-02T23:42:40.406Z,99.90
2018-11-02T23:45:11.034Z,99.90
2018-11-02T23:47:44.329Z,99.90
2018-11-02T23:50:13.504Z,99.90
2018-11-02T23:52:42.636Z,99.90
2018-11-02T23:55:11.756Z,99.90
2018-11-02T23:57:40.963Z,99.90
